| time (UTC) | temp C | wind direction | speed KPH | gust KPH | rain 1hr cm | rain 24hr cm | rain mn cm | humidity % | barometer mb |
| 20260507072049 | 13 | 240 | 22.5 | 0.0 | 0.00 | 0.00 | 0.00 | 62 | |
| 20260507062049 | 12 | 260 | 11.3 | 0.0 | 0.00 | 0.00 | 0.00 | 71 | |
| 20260507052048 | 12 | 240 | 22.5 | 0.0 | 0.00 | 0.00 | 0.00 | 71 | |
| 20260507042251 | 12 | 230 | 14.5 | 0.0 | 0.00 | 0.00 | 0.00 | 81 | |
| 20260507032048 | 12 | 240 | 11.3 | 0.0 | 0.00 | 0.00 | 0.00 | 81 | |
| 20260507022046 | 12 | 230 | 11.3 | 0.0 | 0.00 | 0.00 | 0.00 | 81 | |
| 20260507012148 | 12 | 240 | 11.3 | 0.0 | 0.00 | 0.00 | 0.00 | 87 | |
| 20260507002048 | 12 | 260 | 19.3 | 0.0 | 0.00 | 0.00 | 0.00 | 76 | |
| 20260506232049 | 13 | 290 | 19.3 | 0.0 | 0.00 | 0.00 | 0.00 | 71 | |
| 20260506222320 | 15 | 260 | 14.5 | 0.0 | 0.00 | 0.00 | 0.00 | 72 | |
| 20260506212110 | 16 | 140 | 11.3 | 0.0 | 0.00 | 0.00 | 0.00 | 59 | |
| 20260506202122 | 17 | 130 | 14.5 | 0.0 | 0.00 | 0.00 | 0.00 | 55 | |
| 20260506192241 | 18 | 120 | 19.3 | 0.0 | 0.00 | 0.00 | 0.00 | 48 | |
| 20260506182138 | 20 | 120 | 22.5 | 0.0 | 0.00 | 0.00 | 0.00 | 45 | |
| 20260506172103 | 21 | 120 | 25.7 | 0.0 | 0.00 | 0.00 | 0.00 | 43 | |
| 20260506162321 | 22 | 130 | 29.0 | 0.0 | 0.00 | 0.00 | 0.00 | 40 | |
| 20260506152137 | 22 | 130 | 29.0 | 46.7 | 0.00 | 0.00 | 0.00 | 37 | |
| 20260506142104 | 22 | 130 | 29.0 | 0.0 | 0.00 | 0.00 | 0.00 | 38 | |
| 20260506132105 | 22 | 130 | 29.0 | 49.9 | 0.00 | 0.00 | 0.00 | 43 | |
| 20260506122104 | 21 | 170 | 22.5 | 0.0 | 0.00 | 0.00 | 0.00 | 43 | |
| 20260506112049 | 22 | 140 | 19.3 | 0.0 | 0.00 | 0.00 | 0.00 | 40 | |
| 20260506102251 | 22 | 190 | 19.3 | 0.0 | 0.00 | 0.00 | 0.00 | 37 | |
| 20260506092035 | 18 | 210 | 11.3 | 0.0 | 0.00 | 0.00 | 0.00 | 48 | |
| 20260506082049 | 17 | 200 | 14.5 | 0.0 | 0.00 | 0.00 | 0.00 | 55 |